sensor_id;sensor_type;location;lat;lon;timestamp;P1;durP1;ratioP1;P2;durP2;ratioP2
11328;SDS011;5719;42.714;23.732;2023-03-26T00:00:05;19.67;;;11.68;;
11328;SDS011;5719;42.714;23.732;2023-03-26T00:02:39;18.08;;;11.27;;
11328;SDS011;5719;42.714;23.732;2023-03-26T00:05:07;19.17;;;11.07;;
11328;SDS011;5719;42.714;23.732;2023-03-26T00:07:35;17.85;;;11.30;;
11328;SDS011;5719;42.714;23.732;2023-03-26T00:10:02;15.93;;;11.02;;
11328;SDS011;5719;42.714;23.732;2023-03-26T00:12:30;16.58;;;9.82;;
11328;SDS011;5719;42.714;23.732;2023-03-26T00:14:57;14.50;;;8.57;;
11328;SDS011;5719;42.714;23.732;2023-03-26T00:17:24;11.38;;;8.30;;
11328;SDS011;5719;42.714;23.732;2023-03-26T00:19:51;12.65;;;7.78;;
11328;SDS011;5719;42.714;23.732;2023-03-26T00:22:18;8.88;;;6.93;;
11328;SDS011;5719;42.714;23.732;2023-03-26T00:24:47;9.57;;;6.53;;
11328;SDS011;5719;42.714;23.732;2023-03-26T00:27:15;7.20;;;5.22;;
11328;SDS011;5719;42.714;23.732;2023-03-26T00:29:43;8.30;;;5.60;;
11328;SDS011;5719;42.714;23.732;2023-03-26T00:32:12;9.00;;;5.68;;
11328;SDS011;5719;42.714;23.732;2023-03-26T00:34:39;5.40;;;4.60;;
11328;SDS011;5719;42.714;23.732;2023-03-26T00:37:06;4.93;;;3.80;;
11328;SDS011;5719;42.714;23.732;2023-03-26T00:39:33;4.75;;;4.20;;
11328;SDS011;5719;42.714;23.732;2023-03-26T00:42:01;5.95;;;4.00;;
11328;SDS011;5719;42.714;23.732;2023-03-26T00:44:31;5.47;;;4.43;;
11328;SDS011;5719;42.714;23.732;2023-03-26T00:47:00;4.00;;;3.70;;
11328;SDS011;5719;42.714;23.732;2023-03-26T00:49:27;5.57;;;3.95;;
11328;SDS011;5719;42.714;23.732;2023-03-26T00:51:55;6.13;;;4.45;;
11328;SDS011;5719;42.714;23.732;2023-03-26T00:54:22;7.80;;;4.75;;
11328;SDS011;5719;42.714;23.732;2023-03-26T00:56:48;6.90;;;4.70;;
11328;SDS011;5719;42.714;23.732;2023-03-26T00:59:20;7.63;;;5.68;;
11328;SDS011;5719;42.714;23.732;2023-03-26T01:01:47;7.93;;;6.25;;
11328;SDS011;5719;42.714;23.732;2023-03-26T01:04:24;15.27;;;8.93;;
11328;SDS011;5719;42.714;23.732;2023-03-26T01:06:54;12.82;;;8.38;;
11328;SDS011;5719;42.714;23.732;2023-03-26T01:09:24;8.95;;;6.30;;
11328;SDS011;5719;42.714;23.732;2023-03-26T01:11:57;6.35;;;4.05;;
11328;SDS011;5719;42.714;23.732;2023-03-26T01:14:24;2.95;;;2.75;;
11328;SDS011;5719;42.714;23.732;2023-03-26T01:16:54;3.55;;;3.13;;
11328;SDS011;5719;42.714;23.732;2023-03-26T01:19:24;2.72;;;2.25;;
11328;SDS011;5719;42.714;23.732;2023-03-26T01:21:58;2.42;;;2.22;;
11328;SDS011;5719;42.714;23.732;2023-03-26T01:24:26;1.90;;;1.80;;
11328;SDS011;5719;42.714;23.732;2023-03-26T01:29:53;1.40;;;1.30;;
11328;SDS011;5719;42.714;23.732;2023-03-26T01:32:24;1.48;;;1.38;;
11328;SDS011;5719;42.714;23.732;2023-03-26T01:35:07;1.10;;;1.00;;
11328;SDS011;5719;42.714;23.732;2023-03-26T01:37:48;1.15;;;1.10;;
11328;SDS011;5719;42.714;23.732;2023-03-26T01:40:25;1.80;;;1.30;;
11328;SDS011;5719;42.714;23.732;2023-03-26T01:42:57;1.25;;;1.17;;
11328;SDS011;5719;42.714;23.732;2023-03-26T01:45:31;1.08;;;0.93;;
11328;SDS011;5719;42.714;23.732;2023-03-26T01:48:01;1.42;;;1.00;;
11328;SDS011;5719;42.714;23.732;2023-03-26T01:50:29;1.85;;;0.85;;
11328;SDS011;5719;42.714;23.732;2023-03-26T01:52:55;0.60;;;0.60;;
11328;SDS011;5719;42.714;23.732;2023-03-26T01:55:22;0.73;;;0.60;;
11328;SDS011;5719;42.714;23.732;2023-03-26T01:57:57;0.63;;;0.50;;
11328;SDS011;5719;42.714;23.732;2023-03-26T02:00:34;0.60;;;0.60;;
11328;SDS011;5719;42.714;23.732;2023-03-26T02:05:45;0.63;;;0.63;;
11328;SDS011;5719;42.714;23.732;2023-03-26T02:08:19;1.55;;;0.60;;
11328;SDS011;5719;42.714;23.732;2023-03-26T02:10:51;0.50;;;0.50;;
11328;SDS011;5719;42.714;23.732;2023-03-26T02:13:21;0.70;;;0.50;;
11328;SDS011;5719;42.714;23.732;2023-03-26T02:15:56;0.60;;;0.60;;
11328;SDS011;5719;42.714;23.732;2023-03-26T02:18:23;0.85;;;0.50;;
11328;SDS011;5719;42.714;23.732;2023-03-26T02:21:01;0.75;;;0.60;;
11328;SDS011;5719;42.714;23.732;2023-03-26T02:23:29;1.20;;;0.60;;
11328;SDS011;5719;42.714;23.732;2023-03-26T02:26:01;0.70;;;0.70;;
11328;SDS011;5719;42.714;23.732;2023-03-26T02:28:30;0.70;;;0.70;;
11328;SDS011;5719;42.714;23.732;2023-03-26T02:30:57;0.65;;;0.63;;
11328;SDS011;5719;42.714;23.732;2023-03-26T02:33:26;0.57;;;0.57;;
11328;SDS011;5719;42.714;23.732;2023-03-26T02:35:53;1.38;;;0.70;;
11328;SDS011;5719;42.714;23.732;2023-03-26T02:38:23;1.08;;;0.77;;
11328;SDS011;5719;42.714;23.732;2023-03-26T02:40:51;0.75;;;0.75;;
11328;SDS011;5719;42.714;23.732;2023-03-26T02:43:20;0.68;;;0.63;;
11328;SDS011;5719;42.714;23.732;2023-03-26T02:45:47;3.33;;;0.80;;
11328;SDS011;5719;42.714;23.732;2023-03-26T02:48:14;1.23;;;0.90;;
11328;SDS011;5719;42.714;23.732;2023-03-26T02:50:41;0.85;;;0.63;;
11328;SDS011;5719;42.714;23.732;2023-03-26T02:53:08;0.70;;;0.70;;
11328;SDS011;5719;42.714;23.732;2023-03-26T02:55:36;0.93;;;0.80;;
11328;SDS011;5719;42.714;23.732;2023-03-26T02:58:03;1.25;;;0.82;;
11328;SDS011;5719;42.714;23.732;2023-03-26T03:00:31;0.80;;;0.80;;
11328;SDS011;5719;42.714;23.732;2023-03-26T03:02:58;3.22;;;0.70;;
11328;SDS011;5719;42.714;23.732;2023-03-26T03:05:28;1.63;;;0.80;;
11328;SDS011;5719;42.714;23.732;2023-03-26T03:07:56;1.10;;;1.00;;
11328;SDS011;5719;42.714;23.732;2023-03-26T03:10:23;3.78;;;0.90;;
11328;SDS011;5719;42.714;23.732;2023-03-26T03:12:50;0.88;;;0.88;;
11328;SDS011;5719;42.714;23.732;2023-03-26T03:15:17;0.70;;;0.70;;
11328;SDS011;5719;42.714;23.732;2023-03-26T03:17:46;1.02;;;0.90;;
11328;SDS011;5719;42.714;23.732;2023-03-26T03:20:13;2.35;;;1.08;;
11328;SDS011;5719;42.714;23.732;2023-03-26T03:22:40;1.60;;;1.50;;
11328;SDS011;5719;42.714;23.732;2023-03-26T03:25:08;1.30;;;1.20;;
11328;SDS011;5719;42.714;23.732;2023-03-26T03:27:38;1.20;;;1.20;;
11328;SDS011;5719;42.714;23.732;2023-03-26T03:30:07;1.92;;;1.20;;
11328;SDS011;5719;42.714;23.732;2023-03-26T03:32:36;1.35;;;1.25;;
11328;SDS011;5719;42.714;23.732;2023-03-26T03:35:05;1.70;;;1.60;;
11328;SDS011;5719;42.714;23.732;2023-03-26T03:37:32;1.73;;;1.60;;
11328;SDS011;5719;42.714;23.732;2023-03-26T03:39:59;2.10;;;1.90;;
11328;SDS011;5719;42.714;23.732;2023-03-26T03:42:26;2.13;;;2.00;;
11328;SDS011;5719;42.714;23.732;2023-03-26T03:44:53;2.35;;;2.15;;
11328;SDS011;5719;42.714;23.732;2023-03-26T03:47:20;4.10;;;2.20;;
11328;SDS011;5719;42.714;23.732;2023-03-26T03:49:47;3.92;;;2.50;;
11328;SDS011;5719;42.714;23.732;2023-03-26T03:52:16;3.25;;;2.00;;
11328;SDS011;5719;42.714;23.732;2023-03-26T03:54:43;2.40;;;2.08;;
11328;SDS011;5719;42.714;23.732;2023-03-26T03:57:10;2.15;;;1.92;;
11328;SDS011;5719;42.714;23.732;2023-03-26T03:59:40;5.35;;;2.67;;
11328;SDS011;5719;42.714;23.732;2023-03-26T04:02:07;3.13;;;2.83;;
11328;SDS011;5719;42.714;23.732;2023-03-26T04:04:34;4.50;;;3.20;;
11328;SDS011;5719;42.714;23.732;2023-03-26T04:07:01;3.47;;;2.88;;
11328;SDS011;5719;42.714;23.732;2023-03-26T04:09:30;3.20;;;2.90;;
11328;SDS011;5719;42.714;23.732;2023-03-26T04:11:57;2.83;;;2.60;;
11328;SDS011;5719;42.714;23.732;2023-03-26T04:14:24;3.00;;;2.67;;
11328;SDS011;5719;42.714;23.732;2023-03-26T04:16:51;5.47;;;3.20;;
11328;SDS011;5719;42.714;23.732;2023-03-26T04:19:17;3.80;;;3.42;;
11328;SDS011;5719;42.714;23.732;2023-03-26T04:21:44;4.70;;;3.10;;
11328;SDS011;5719;42.714;23.732;2023-03-26T04:24:11;2.72;;;2.53;;
11328;SDS011;5719;42.714;23.732;2023-03-26T04:26:39;3.05;;;2.75;;
11328;SDS011;5719;42.714;23.732;2023-03-26T04:29:06;2.72;;;2.53;;
11328;SDS011;5719;42.714;23.732;2023-03-26T04:31:37;4.93;;;3.40;;
11328;SDS011;5719;42.714;23.732;2023-03-26T04:34:07;3.35;;;2.90;;
11328;SDS011;5719;42.714;23.732;2023-03-26T04:36:38;7.68;;;2.88;;
11328;SDS011;5719;42.714;23.732;2023-03-26T04:39:08;4.32;;;3.35;;
11328;SDS011;5719;42.714;23.732;2023-03-26T04:41:37;3.17;;;2.75;;
11328;SDS011;5719;42.714;23.732;2023-03-26T04:44:05;3.22;;;2.67;;
11328;SDS011;5719;42.714;23.732;2023-03-26T04:46:32;3.67;;;2.70;;
11328;SDS011;5719;42.714;23.732;2023-03-26T04:48:59;4.60;;;3.08;;
11328;SDS011;5719;42.714;23.732;2023-03-26T04:51:29;5.60;;;3.58;;
11328;SDS011;5719;42.714;23.732;2023-03-26T04:54:02;11.27;;;4.93;;
11328;SDS011;5719;42.714;23.732;2023-03-26T04:56:33;8.50;;;3.78;;
11328;SDS011;5719;42.714;23.732;2023-03-26T04:59:08;3.30;;;2.60;;
11328;SDS011;5719;42.714;23.732;2023-03-26T05:01:39;2.60;;;2.40;;
11328;SDS011;5719;42.714;23.732;2023-03-26T05:04:09;2.65;;;2.20;;
11328;SDS011;5719;42.714;23.732;2023-03-26T05:06:37;2.88;;;2.45;;
11328;SDS011;5719;42.714;23.732;2023-03-26T05:09:04;3.75;;;2.20;;
11328;SDS011;5719;42.714;23.732;2023-03-26T05:11:32;2.45;;;2.03;;
11328;SDS011;5719;42.714;23.732;2023-03-26T05:13:59;2.50;;;2.30;;
11328;SDS011;5719;42.714;23.732;2023-03-26T05:16:28;2.42;;;2.30;;
11328;SDS011;5719;42.714;23.732;2023-03-26T05:18:55;2.58;;;2.22;;
11328;SDS011;5719;42.714;23.732;2023-03-26T05:21:22;3.95;;;2.22;;
11328;SDS011;5719;42.714;23.732;2023-03-26T05:23:49;2.67;;;2.47;;
11328;SDS011;5719;42.714;23.732;2023-03-26T05:26:16;3.08;;;2.30;;
11328;SDS011;5719;42.714;23.732;2023-03-26T05:28:44;2.35;;;1.80;;
11328;SDS011;5719;42.714;23.732;2023-03-26T05:31:10;2.13;;;2.00;;
11328;SDS011;5719;42.714;23.732;2023-03-26T05:33:41;2.13;;;1.50;;
11328;SDS011;5719;42.714;23.732;2023-03-26T05:36:08;1.60;;;1.50;;
11328;SDS011;5719;42.714;23.732;2023-03-26T05:38:39;1.90;;;1.80;;
11328;SDS011;5719;42.714;23.732;2023-03-26T05:41:08;2.58;;;1.58;;
11328;SDS011;5719;42.714;23.732;2023-03-26T05:43:36;2.35;;;1.40;;
11328;SDS011;5719;42.714;23.732;2023-03-26T05:46:02;2.05;;;1.55;;
11328;SDS011;5719;42.714;23.732;2023-03-26T05:48:30;1.88;;;1.52;;
11328;SDS011;5719;42.714;23.732;2023-03-26T05:50:59;2.10;;;1.35;;
11328;SDS011;5719;42.714;23.732;2023-03-26T05:53:26;2.20;;;1.42;;
11328;SDS011;5719;42.714;23.732;2023-03-26T05:55:53;3.03;;;1.33;;
11328;SDS011;5719;42.714;23.732;2023-03-26T05:58:22;1.15;;;1.10;;
11328;SDS011;5719;42.714;23.732;2023-03-26T06:00:55;1.60;;;1.50;;
11328;SDS011;5719;42.714;23.732;2023-03-26T06:03:22;1.50;;;1.40;;
11328;SDS011;5719;42.714;23.732;2023-03-26T06:05:50;1.92;;;1.80;;
11328;SDS011;5719;42.714;23.732;2023-03-26T06:08:18;2.08;;;1.88;;
11328;SDS011;5719;42.714;23.732;2023-03-26T06:10:46;1.92;;;1.73;;
11328;SDS011;5719;42.714;23.732;2023-03-26T06:13:13;1.60;;;1.50;;
11328;SDS011;5719;42.714;23.732;2023-03-26T06:15:41;2.42;;;1.80;;
11328;SDS011;5719;42.714;23.732;2023-03-26T06:18:08;3.08;;;1.90;;
11328;SDS011;5719;42.714;23.732;2023-03-26T06:20:35;1.80;;;1.70;;
11328;SDS011;5719;42.714;23.732;2023-03-26T06:23:02;2.80;;;2.03;;
11328;SDS011;5719;42.714;23.732;2023-03-26T06:25:30;4.85;;;2.38;;
11328;SDS011;5719;42.714;23.732;2023-03-26T06:27:57;2.33;;;2.22;;
11328;SDS011;5719;42.714;23.732;2023-03-26T06:30:24;2.42;;;2.22;;
11328;SDS011;5719;42.714;23.732;2023-03-26T06:32:51;2.10;;;2.00;;
11328;SDS011;5719;42.714;23.732;2023-03-26T06:35:18;2.85;;;2.08;;
11328;SDS011;5719;42.714;23.732;2023-03-26T06:37:45;3.90;;;2.38;;
11328;SDS011;5719;42.714;23.732;2023-03-26T06:40:12;2.58;;;2.38;;
11328;SDS011;5719;42.714;23.732;2023-03-26T06:42:41;2.78;;;2.50;;
11328;SDS011;5719;42.714;23.732;2023-03-26T06:45:08;2.60;;;2.40;;
11328;SDS011;5719;42.714;23.732;2023-03-26T06:47:35;3.92;;;2.30;;
11328;SDS011;5719;42.714;23.732;2023-03-26T06:50:03;2.97;;;2.25;;
11328;SDS011;5719;42.714;23.732;2023-03-26T06:52:30;2.50;;;2.30;;
11328;SDS011;5719;42.714;23.732;2023-03-26T06:54:57;2.72;;;2.33;;
11328;SDS011;5719;42.714;23.732;2023-03-26T06:57:25;3.72;;;2.17;;
11328;SDS011;5719;42.714;23.732;2023-03-26T06:59:53;1.90;;;1.80;;
11328;SDS011;5719;42.714;23.732;2023-03-26T07:02:20;1.80;;;1.70;;
11328;SDS011;5719;42.714;23.732;2023-03-26T07:04:47;1.80;;;1.50;;
11328;SDS011;5719;42.714;23.732;2023-03-26T07:07:14;2.58;;;1.98;;
11328;SDS011;5719;42.714;23.732;2023-03-26T07:09:42;1.80;;;1.70;;
11328;SDS011;5719;42.714;23.732;2023-03-26T07:12:09;2.63;;;2.38;;
11328;SDS011;5719;42.714;23.732;2023-03-26T07:14:36;2.20;;;2.10;;
11328;SDS011;5719;42.714;23.732;2023-03-26T07:17:04;2.97;;;2.70;;
11328;SDS011;5719;42.714;23.732;2023-03-26T07:19:31;3.47;;;3.03;;
11328;SDS011;5719;42.714;23.732;2023-03-26T07:21:59;4.00;;;3.60;;
11328;SDS011;5719;42.714;23.732;2023-03-26T07:24:26;4.43;;;4.13;;
11328;SDS011;5719;42.714;23.732;2023-03-26T07:26:55;4.78;;;4.38;;
11328;SDS011;5719;42.714;23.732;2023-03-26T07:29:31;4.30;;;3.65;;
11328;SDS011;5719;42.714;23.732;2023-03-26T07:32:06;4.72;;;3.35;;
11328;SDS011;5719;42.714;23.732;2023-03-26T07:34:44;3.88;;;3.58;;
11328;SDS011;5719;42.714;23.732;2023-03-26T07:37:20;4.13;;;3.83;;
11328;SDS011;5719;42.714;23.732;2023-03-26T07:39:56;4.15;;;3.10;;
11328;SDS011;5719;42.714;23.732;2023-03-26T07:42:30;3.55;;;3.22;;
11328;SDS011;5719;42.714;23.732;2023-03-26T07:45:09;3.30;;;3.00;;
11328;SDS011;5719;42.714;23.732;2023-03-26T07:47:45;3.03;;;2.83;;
11328;SDS011;5719;42.714;23.732;2023-03-26T07:50:14;4.20;;;3.90;;
11328;SDS011;5719;42.714;23.732;2023-03-26T07:52:42;3.47;;;3.17;;
11328;SDS011;5719;42.714;23.732;2023-03-26T07:55:11;4.13;;;3.72;;
11328;SDS011;5719;42.714;23.732;2023-03-26T07:57:41;5.72;;;4.13;;
11328;SDS011;5719;42.714;23.732;2023-03-26T08:00:18;4.53;;;3.78;;
11328;SDS011;5719;42.714;23.732;2023-03-26T08:05:47;3.65;;;3.35;;
11328;SDS011;5719;42.714;23.732;2023-03-26T08:08:20;4.25;;;3.00;;
11328;SDS011;5719;42.714;23.732;2023-03-26T08:10:57;3.60;;;2.97;;
11328;SDS011;5719;42.714;23.732;2023-03-26T08:13:36;4.82;;;4.20;;
11328;SDS011;5719;42.714;23.732;2023-03-26T08:16:22;3.67;;;3.08;;
11328;SDS011;5719;42.714;23.732;2023-03-26T08:18:57;4.40;;;2.80;;
11328;SDS011;5719;42.714;23.732;2023-03-26T08:21:37;3.30;;;2.65;;
11328;SDS011;5719;42.714;23.732;2023-03-26T08:24:11;2.95;;;2.20;;
11328;SDS011;5719;42.714;23.732;2023-03-26T08:26:44;2.80;;;2.53;;
11328;SDS011;5719;42.714;23.732;2023-03-26T08:29:20;3.38;;;2.40;;
11328;SDS011;5719;42.714;23.732;2023-03-26T08:31:52;3.70;;;3.40;;
11328;SDS011;5719;42.714;23.732;2023-03-26T08:34:22;2.65;;;2.45;;
11328;SDS011;5719;42.714;23.732;2023-03-26T08:36:50;3.83;;;2.70;;
11328;SDS011;5719;42.714;23.732;2023-03-26T08:39:17;2.20;;;2.10;;
11328;SDS011;5719;42.714;23.732;2023-03-26T08:42:00;2.70;;;2.50;;
11328;SDS011;5719;42.714;23.732;2023-03-26T08:45:09;3.13;;;2.55;;
11328;SDS011;5719;42.714;23.732;2023-03-26T08:48:16;4.68;;;3.13;;
11328;SDS011;5719;42.714;23.732;2023-03-26T08:54:03;3.58;;;3.17;;
11328;SDS011;5719;42.714;23.732;2023-03-26T08:56:43;3.28;;;2.95;;
11328;SDS011;5719;42.714;23.732;2023-03-26T09:02:31;4.38;;;3.05;;
11328;SDS011;5719;42.714;23.732;2023-03-26T09:11:29;7.28;;;3.38;;
11328;SDS011;5719;42.714;23.732;2023-03-26T09:17:32;2.88;;;2.50;;
11328;SDS011;5719;42.714;23.732;2023-03-26T09:20:34;2.80;;;2.60;;
11328;SDS011;5719;42.714;23.732;2023-03-26T09:26:23;2.38;;;2.28;;
11328;SDS011;5719;42.714;23.732;2023-03-26T09:32:14;2.60;;;2.40;;
11328;SDS011;5719;42.714;23.732;2023-03-26T09:35:09;2.40;;;2.25;;
11328;SDS011;5719;42.714;23.732;2023-03-26T09:37:46;2.50;;;2.30;;
11328;SDS011;5719;42.714;23.732;2023-03-26T09:40:24;2.75;;;2.35;;
11328;SDS011;5719;42.714;23.732;2023-03-26T09:43:02;6.28;;;2.80;;
11328;SDS011;5719;42.714;23.732;2023-03-26T09:45:55;2.17;;;2.00;;
11328;SDS011;5719;42.714;23.732;2023-03-26T09:48:37;2.45;;;2.20;;
11328;SDS011;5719;42.714;23.732;2023-03-26T09:57:21;2.05;;;1.95;;
11328;SDS011;5719;42.714;23.732;2023-03-26T10:00:02;2.85;;;2.13;;
11328;SDS011;5719;42.714;23.732;2023-03-26T10:02:47;4.22;;;2.53;;
11328;SDS011;5719;42.714;23.732;2023-03-26T10:05:34;2.28;;;2.17;;
11328;SDS011;5719;42.714;23.732;2023-03-26T10:08:18;2.28;;;2.17;;
11328;SDS011;5719;42.714;23.732;2023-03-26T10:10:58;3.53;;;2.25;;
11328;SDS011;5719;42.714;23.732;2023-03-26T10:13:32;1.73;;;1.63;;
11328;SDS011;5719;42.714;23.732;2023-03-26T10:16:14;3.05;;;2.22;;
11328;SDS011;5719;42.714;23.732;2023-03-26T10:18:50;4.72;;;1.80;;
11328;SDS011;5719;42.714;23.732;2023-03-26T10:21:28;1.70;;;1.60;;
11328;SDS011;5719;42.714;23.732;2023-03-26T10:24:19;2.20;;;1.95;;
11328;SDS011;5719;42.714;23.732;2023-03-26T10:27:02;8.68;;;2.53;;
11328;SDS011;5719;42.714;23.732;2023-03-26T10:29:43;2.03;;;1.80;;
11328;SDS011;5719;42.714;23.732;2023-03-26T10:32:32;2.47;;;2.13;;
11328;SDS011;5719;42.714;23.732;2023-03-26T10:35:11;1.88;;;1.60;;
11328;SDS011;5719;42.714;23.732;2023-03-26T10:37:52;2.92;;;1.83;;
11328;SDS011;5719;42.714;23.732;2023-03-26T10:40:29;1.75;;;1.65;;
11328;SDS011;5719;42.714;23.732;2023-03-26T10:43:13;1.52;;;1.42;;
11328;SDS011;5719;42.714;23.732;2023-03-26T10:46:00;4.75;;;1.52;;
11328;SDS011;5719;42.714;23.732;2023-03-26T10:51:40;5.82;;;1.80;;
11328;SDS011;5719;42.714;23.732;2023-03-26T10:54:16;3.67;;;1.55;;
11328;SDS011;5719;42.714;23.732;2023-03-26T10:56:51;1.65;;;1.55;;
11328;SDS011;5719;42.714;23.732;2023-03-26T10:59:21;1.77;;;1.63;;
11328;SDS011;5719;42.714;23.732;2023-03-26T11:01:54;1.52;;;1.33;;
11328;SDS011;5719;42.714;23.732;2023-03-26T11:04:32;2.88;;;1.40;;
11328;SDS011;5719;42.714;23.732;2023-03-26T11:07:11;2.15;;;1.23;;
11328;SDS011;5719;42.714;23.732;2023-03-26T11:09:47;3.63;;;1.63;;
11328;SDS011;5719;42.714;23.732;2023-03-26T11:12:21;4.10;;;1.80;;
11328;SDS011;5719;42.714;23.732;2023-03-26T11:15:00;1.50;;;1.40;;
11328;SDS011;5719;42.714;23.732;2023-03-26T11:17:39;1.30;;;1.30;;
11328;SDS011;5719;42.714;23.732;2023-03-26T11:20:16;6.13;;;1.33;;
11328;SDS011;5719;42.714;23.732;2023-03-26T11:22:53;2.10;;;1.60;;
11328;SDS011;5719;42.714;23.732;2023-03-26T11:25:49;1.42;;;1.33;;
11328;SDS011;5719;42.714;23.732;2023-03-26T11:28:28;2.80;;;1.42;;
11328;SDS011;5719;42.714;23.732;2023-03-26T11:31:17;1.20;;;1.10;;
11328;SDS011;5719;42.714;23.732;2023-03-26T11:33:52;1.23;;;1.13;;
11328;SDS011;5719;42.714;23.732;2023-03-26T11:36:24;1.42;;;1.10;;
11328;SDS011;5719;42.714;23.732;2023-03-26T11:38:56;1.48;;;1.05;;
11328;SDS011;5719;42.714;23.732;2023-03-26T11:41:25;1.85;;;1.33;;
11328;SDS011;5719;42.714;23.732;2023-03-26T11:43:55;1.13;;;1.13;;
11328;SDS011;5719;42.714;23.732;2023-03-26T11:46:28;1.98;;;1.27;;
11328;SDS011;5719;42.714;23.732;2023-03-26T11:48:58;2.75;;;1.10;;
11328;SDS011;5719;42.714;23.732;2023-03-26T11:51:28;0.80;;;0.80;;
11328;SDS011;5719;42.714;23.732;2023-03-26T11:53:57;1.13;;;1.13;;
11328;SDS011;5719;42.714;23.732;2023-03-26T11:56:25;1.52;;;1.00;;
11328;SDS011;5719;42.714;23.732;2023-03-26T11:58:56;1.58;;;1.10;;
11328;SDS011;5719;42.714;23.732;2023-03-26T12:04:10;1.20;;;1.10;;
11328;SDS011;5719;42.714;23.732;2023-03-26T12:06:49;1.08;;;1.00;;
11328;SDS011;5719;42.714;23.732;2023-03-26T12:09:22;1.23;;;0.95;;
11328;SDS011;5719;42.714;23.732;2023-03-26T12:11:51;2.70;;;1.00;;
11328;SDS011;5719;42.714;23.732;2023-03-26T12:14:21;2.75;;;1.08;;
11328;SDS011;5719;42.714;23.732;2023-03-26T12:16:58;1.73;;;0.75;;
11328;SDS011;5719;42.714;23.732;2023-03-26T12:19:27;2.47;;;0.85;;
11328;SDS011;5719;42.714;23.732;2023-03-26T12:22:01;1.13;;;0.70;;
11328;SDS011;5719;42.714;23.732;2023-03-26T12:24:28;0.93;;;0.90;;
11328;SDS011;5719;42.714;23.732;2023-03-26T12:26:57;1.63;;;0.70;;
11328;SDS011;5719;42.714;23.732;2023-03-26T12:29:26;1.35;;;0.80;;
11328;SDS011;5719;42.714;23.732;2023-03-26T12:31:54;1.30;;;0.80;;
11328;SDS011;5719;42.714;23.732;2023-03-26T12:34:23;1.40;;;0.90;;
11328;SDS011;5719;42.714;23.732;2023-03-26T12:36:58;1.25;;;0.80;;
11328;SDS011;5719;42.714;23.732;2023-03-26T12:39:29;2.85;;;0.68;;
11328;SDS011;5719;42.714;23.732;2023-03-26T12:41:59;1.08;;;0.80;;
11328;SDS011;5719;42.714;23.732;2023-03-26T12:44:28;0.73;;;0.63;;
11328;SDS011;5719;42.714;23.732;2023-03-26T12:49:45;2.17;;;0.50;;
11328;SDS011;5719;42.714;23.732;2023-03-26T12:55:23;1.08;;;0.98;;
11328;SDS011;5719;42.714;23.732;2023-03-26T12:58:09;0.65;;;0.65;;
11328;SDS011;5719;42.714;23.732;2023-03-26T13:00:50;2.88;;;0.90;;
11328;SDS011;5719;42.714;23.732;2023-03-26T13:03:29;2.03;;;0.77;;
11328;SDS011;5719;42.714;23.732;2023-03-26T13:06:16;0.80;;;0.80;;
11328;SDS011;5719;42.714;23.732;2023-03-26T13:12:12;1.65;;;0.90;;
11328;SDS011;5719;42.714;23.732;2023-03-26T13:14:55;1.40;;;0.80;;
11328;SDS011;5719;42.714;23.732;2023-03-26T13:17:33;2.97;;;0.80;;
11328;SDS011;5719;42.714;23.732;2023-03-26T13:20:07;0.82;;;0.65;;
11328;SDS011;5719;42.714;23.732;2023-03-26T13:22:43;0.95;;;0.60;;
11328;SDS011;5719;42.714;23.732;2023-03-26T13:25:19;1.10;;;0.70;;
11328;SDS011;5719;42.714;23.732;2023-03-26T13:27:58;0.60;;;0.50;;
11328;SDS011;5719;42.714;23.732;2023-03-26T13:30:35;2.05;;;0.60;;
11328;SDS011;5719;42.714;23.732;2023-03-26T13:33:12;0.75;;;0.70;;
11328;SDS011;5719;42.714;23.732;2023-03-26T13:35:52;6.25;;;0.98;;
11328;SDS011;5719;42.714;23.732;2023-03-26T13:38:31;0.55;;;0.52;;
11328;SDS011;5719;42.714;23.732;2023-03-26T13:41:06;0.40;;;0.40;;
11328;SDS011;5719;42.714;23.732;2023-03-26T13:43:44;2.28;;;0.55;;
11328;SDS011;5719;42.714;23.732;2023-03-26T13:46:24;3.15;;;0.73;;
11328;SDS011;5719;42.714;23.732;2023-03-26T13:48:57;0.80;;;0.60;;
11328;SDS011;5719;42.714;23.732;2023-03-26T13:51:28;2.38;;;0.60;;
11328;SDS011;5719;42.714;23.732;2023-03-26T13:54:02;1.20;;;0.70;;
11328;SDS011;5719;42.714;23.732;2023-03-26T13:56:37;1.23;;;0.60;;
11328;SDS011;5719;42.714;23.732;2023-03-26T13:59:07;1.38;;;0.80;;
11328;SDS011;5719;42.714;23.732;2023-03-26T14:01:42;0.75;;;0.50;;
11328;SDS011;5719;42.714;23.732;2023-03-26T14:04:15;0.75;;;0.40;;
11328;SDS011;5719;42.714;23.732;2023-03-26T14:06:49;0.55;;;0.55;;
11328;SDS011;5719;42.714;23.732;2023-03-26T14:09:28;1.88;;;1.17;;
11328;SDS011;5719;42.714;23.732;2023-03-26T14:12:01;0.60;;;0.60;;
11328;SDS011;5719;42.714;23.732;2023-03-26T14:14:42;0.80;;;0.60;;
11328;SDS011;5719;42.714;23.732;2023-03-26T14:17:14;1.40;;;0.60;;
11328;SDS011;5719;42.714;23.732;2023-03-26T14:20:01;0.98;;;0.60;;
11328;SDS011;5719;42.714;23.732;2023-03-26T14:22:54;3.10;;;0.53;;
11328;SDS011;5719;42.714;23.732;2023-03-26T14:25:34;2.35;;;0.88;;
11328;SDS011;5719;42.714;23.732;2023-03-26T14:28:20;4.22;;;0.70;;
11328;SDS011;5719;42.714;23.732;2023-03-26T14:31:03;0.77;;;0.68;;
11328;SDS011;5719;42.714;23.732;2023-03-26T14:33:48;1.15;;;0.70;;
11328;SDS011;5719;42.714;23.732;2023-03-26T14:36:46;0.60;;;0.60;;
11328;SDS011;5719;42.714;23.732;2023-03-26T14:39:36;3.03;;;0.50;;
11328;SDS011;5719;42.714;23.732;2023-03-26T14:42:33;0.40;;;0.40;;
11328;SDS011;5719;42.714;23.732;2023-03-26T14:45:28;0.50;;;0.50;;
11328;SDS011;5719;42.714;23.732;2023-03-26T14:48:27;0.60;;;0.50;;
11328;SDS011;5719;42.714;23.732;2023-03-26T14:51:17;0.50;;;0.50;;
11328;SDS011;5719;42.714;23.732;2023-03-26T14:53:52;0.57;;;0.50;;
11328;SDS011;5719;42.714;23.732;2023-03-26T14:56:32;0.50;;;0.50;;
11328;SDS011;5719;42.714;23.732;2023-03-26T15:08:48;0.40;;;0.40;;
11328;SDS011;5719;42.714;23.732;2023-03-26T15:11:38;0.30;;;0.30;;
11328;SDS011;5719;42.714;23.732;2023-03-26T15:14:30;0.68;;;0.68;;
11328;SDS011;5719;42.714;23.732;2023-03-26T15:23:37;0.38;;;0.38;;
11328;SDS011;5719;42.714;23.732;2023-03-26T15:32:41;1.17;;;1.08;;
11328;SDS011;5719;42.714;23.732;2023-03-26T15:41:33;0.63;;;0.63;;
11328;SDS011;5719;42.714;23.732;2023-03-26T15:44:22;0.80;;;0.40;;
11328;SDS011;5719;42.714;23.732;2023-03-26T15:50:17;0.63;;;0.50;;
11328;SDS011;5719;42.714;23.732;2023-03-26T15:52:53;0.40;;;0.40;;
11328;SDS011;5719;42.714;23.732;2023-03-26T15:55:29;0.55;;;0.28;;
11328;SDS011;5719;42.714;23.732;2023-03-26T15:58:03;0.70;;;0.50;;
11328;SDS011;5719;42.714;23.732;2023-03-26T16:00:37;1.23;;;0.60;;
11328;SDS011;5719;42.714;23.732;2023-03-26T16:03:18;2.55;;;0.65;;
11328;SDS011;5719;42.714;23.732;2023-03-26T16:06:01;0.77;;;0.50;;
11328;SDS011;5719;42.714;23.732;2023-03-26T16:08:48;0.80;;;0.80;;
11328;SDS011;5719;42.714;23.732;2023-03-26T16:11:45;1.35;;;0.70;;
11328;SDS011;5719;42.714;23.732;2023-03-26T16:14:18;0.88;;;0.55;;
11328;SDS011;5719;42.714;23.732;2023-03-26T16:16:52;0.68;;;0.68;;
11328;SDS011;5719;42.714;23.732;2023-03-26T16:19:26;0.55;;;0.55;;
11328;SDS011;5719;42.714;23.732;2023-03-26T16:22:01;0.85;;;0.85;;
11328;SDS011;5719;42.714;23.732;2023-03-26T16:24:32;0.98;;;0.93;;
11328;SDS011;5719;42.714;23.732;2023-03-26T16:27:06;0.90;;;0.85;;
11328;SDS011;5719;42.714;23.732;2023-03-26T16:30:09;1.35;;;1.25;;
11328;SDS011;5719;42.714;23.732;2023-03-26T16:32:54;1.17;;;1.08;;
11328;SDS011;5719;42.714;23.732;2023-03-26T16:35:34;2.55;;;1.00;;
11328;SDS011;5719;42.714;23.732;2023-03-26T16:38:10;2.03;;;1.00;;
11328;SDS011;5719;42.714;23.732;2023-03-26T16:40:50;2.53;;;1.10;;
11328;SDS011;5719;42.714;23.732;2023-03-26T16:49:25;1.20;;;1.10;;
11328;SDS011;5719;42.714;23.732;2023-03-26T16:52:03;1.00;;;0.90;;
11328;SDS011;5719;42.714;23.732;2023-03-26T16:54:45;0.80;;;0.60;;